createdAt,value
2023-03-29T00:00:49.992Z,2.23
2023-03-29T00:03:54.151Z,2.22
2023-03-29T00:06:57.008Z,2.20
2023-03-29T00:10:00.368Z,2.07
2023-03-29T00:13:03.130Z,2.13
2023-03-29T00:16:05.686Z,2.06
2023-03-29T00:19:07.874Z,2.05
2023-03-29T00:22:10.155Z,1.93
2023-03-29T00:25:13.351Z,1.92
2023-03-29T00:28:15.650Z,1.86
2023-03-29T00:31:18.465Z,1.79
2023-03-29T00:34:25.012Z,1.89
2023-03-29T00:37:29.913Z,1.83
2023-03-29T00:40:33.456Z,1.76
2023-03-29T00:43:59.649Z,1.72
2023-03-29T00:47:01.926Z,1.68
2023-03-29T00:50:26.369Z,1.72
2023-03-29T00:53:37.091Z,1.69
2023-03-29T00:56:40.557Z,1.71
2023-03-29T00:59:45.200Z,1.68
2023-03-29T01:02:54.451Z,1.65
2023-03-29T01:06:01.800Z,1.59
2023-03-29T01:09:08.813Z,1.58
2023-03-29T01:12:19.422Z,1.55
2023-03-29T01:15:27.863Z,1.41
2023-03-29T01:18:31.446Z,1.41
2023-03-29T01:21:44.893Z,1.49
2023-03-29T01:25:12.953Z,1.58
2023-03-29T01:28:21.446Z,1.52
2023-03-29T01:31:34.474Z,1.52
2023-03-29T01:34:45.495Z,1.42
2023-03-29T01:37:56.790Z,1.44
2023-03-29T01:40:59.200Z,1.40
2023-03-29T01:44:17.338Z,1.37
2023-03-29T01:47:29.682Z,1.32
2023-03-29T01:50:56.418Z,1.30
2023-03-29T01:54:05.050Z,1.30
2023-03-29T01:57:10.752Z,1.17
2023-03-29T02:00:21.343Z,1.17
2023-03-29T02:03:30.968Z,1.17
2023-03-29T02:06:34.829Z,1.18
2023-03-29T02:09:38.666Z,1.13
2023-03-29T02:12:41.250Z,1.08
2023-03-29T02:15:45.245Z,1.03
2023-03-29T02:18:49.181Z,1.04
2023-03-29T02:22:10.362Z,0.94
2023-03-29T02:25:13.058Z,0.86
2023-03-29T02:28:15.900Z,0.62
2023-03-29T02:31:28.010Z,0.62
2023-03-29T02:34:37.648Z,0.59
2023-03-29T02:37:46.375Z,0.84
2023-03-29T02:40:48.840Z,0.97
2023-03-29T02:43:52.574Z,1.11
2023-03-29T02:46:59.637Z,1.10
2023-03-29T02:50:02.389Z,1.00
2023-03-29T02:53:10.290Z,1.00
2023-03-29T02:56:13.866Z,0.96
2023-03-29T02:59:19.533Z,1.00
2023-03-29T03:02:21.802Z,0.96
2023-03-29T03:05:24.307Z,0.89
2023-03-29T03:08:26.604Z,0.91
2023-03-29T03:11:28.978Z,0.89
2023-03-29T03:14:31.266Z,0.99
2023-03-29T03:17:40.045Z,1.08
2023-03-29T03:20:42.736Z,1.26
2023-03-29T03:23:45.847Z,1.31
2023-03-29T03:26:48.239Z,1.34
2023-03-29T03:29:50.672Z,1.30
2023-03-29T03:32:54.940Z,1.28
2023-03-29T03:36:17.279Z,1.28
2023-03-29T03:39:21.012Z,1.16
2023-03-29T03:42:23.977Z,1.24
2023-03-29T03:45:26.441Z,1.28
2023-03-29T03:48:38.230Z,1.26
2023-03-29T03:51:45.640Z,1.28
2023-03-29T03:54:50.313Z,1.31
2023-03-29T03:58:09.252Z,1.28
2023-03-29T04:01:11.925Z,1.23
2023-03-29T04:04:23.414Z,1.20
2023-03-29T04:07:46.642Z,1.18
2023-03-29T04:11:10.599Z,1.20
2023-03-29T04:14:16.811Z,1.04
2023-03-29T04:17:45.499Z,1.01
2023-03-29T04:21:21.408Z,1.03
2023-03-29T04:24:24.650Z,0.76
2023-03-29T04:27:47.174Z,0.70
2023-03-29T04:31:14.990Z,0.58
2023-03-29T04:34:26.523Z,0.46
2023-03-29T04:37:33.703Z,0.50
2023-03-29T04:40:37.440Z,0.66
2023-03-29T04:44:04.215Z,0.75
2023-03-29T04:47:07.352Z,0.81
2023-03-29T04:50:13.886Z,1.05
2023-03-29T04:53:22.431Z,1.11
2023-03-29T04:56:26.444Z,0.99
2023-03-29T05:00:00.255Z,1.11
2023-03-29T05:03:35.656Z,1.21
2023-03-29T05:06:52.122Z,1.49
2023-03-29T05:09:57.885Z,1.63
2023-03-29T05:13:00.351Z,1.62
2023-03-29T05:16:04.873Z,1.72
2023-03-29T05:19:07.246Z,1.83
2023-03-29T05:22:12.703Z,1.69
2023-03-29T05:25:19.935Z,1.73
2023-03-29T05:28:22.520Z,1.85
2023-03-29T05:31:25.262Z,2.05
2023-03-29T05:34:31.635Z,2.37
2023-03-29T05:37:37.534Z,2.48
2023-03-29T05:40:41.651Z,2.48
2023-03-29T05:44:05.568Z,2.44
2023-03-29T05:47:08.403Z,2.61
2023-03-29T05:50:11.548Z,2.74
2023-03-29T05:53:15.458Z,2.82
2023-03-29T05:56:19.134Z,3.19
2023-03-29T05:59:31.225Z,3.46
2023-03-29T06:02:35.387Z,3.57
2023-03-29T06:05:40.579Z,3.73
2023-03-29T06:08:44.089Z,3.88
2023-03-29T06:11:57.620Z,4.01
2023-03-29T06:15:10.442Z,4.04
2023-03-29T06:18:28.590Z,3.99
2023-03-29T06:21:37.277Z,4.01
2023-03-29T06:24:45.437Z,4.14
2023-03-29T06:27:59.766Z,4.34
2023-03-29T06:31:06.204Z,4.35
2023-03-29T06:34:14.385Z,4.56
2023-03-29T06:37:51.756Z,4.77
2023-03-29T06:41:06.237Z,5.08
2023-03-29T06:44:33.886Z,5.51
2023-03-29T06:47:45.478Z,6.03
2023-03-29T06:50:50.272Z,5.85
2023-03-29T06:53:53.732Z,5.59
2023-03-29T06:57:01.060Z,5.65
2023-03-29T07:00:24.755Z,5.80
2023-03-29T07:03:59.861Z,5.80
2023-03-29T07:07:20.758Z,6.05
2023-03-29T07:10:35.311Z,7.25
2023-03-29T07:14:02.104Z,7.93
2023-03-29T07:17:08.379Z,9.30
2023-03-29T07:20:16.154Z,8.91
2023-03-29T07:23:24.848Z,10.02
2023-03-29T07:26:30.179Z,10.16
2023-03-29T07:29:37.353Z,10.95
2023-03-29T07:32:45.080Z,11.09
2023-03-29T07:36:09.205Z,11.33
2023-03-29T07:39:15.469Z,11.72
2023-03-29T07:42:25.088Z,12.18
2023-03-29T07:45:33.913Z,12.20
2023-03-29T07:48:40.861Z,11.63
2023-03-29T07:51:45.927Z,11.14
2023-03-29T07:54:49.822Z,11.95
2023-03-29T07:58:05.487Z,12.01
2023-03-29T08:01:21.831Z,12.34
2023-03-29T08:04:52.953Z,12.78
2023-03-29T08:08:00.343Z,13.48
2023-03-29T08:11:27.944Z,12.82
2023-03-29T08:14:48.084Z,11.26
2023-03-29T08:18:04.100Z,10.40
2023-03-29T08:21:15.236Z,11.90
2023-03-29T08:24:28.766Z,13.04
2023-03-29T08:27:48.732Z,13.34
2023-03-29T08:31:03.485Z,11.52
2023-03-29T08:34:06.591Z,11.49
2023-03-29T08:37:28.221Z,11.79
2023-03-29T08:40:33.144Z,12.18
2023-03-29T08:44:07.404Z,12.73
2023-03-29T08:48:00.177Z,13.27
2023-03-29T08:51:22.752Z,13.67
2023-03-29T08:54:45.781Z,14.25
2023-03-29T08:58:07.562Z,15.23
2023-03-29T09:01:15.981Z,15.81
2023-03-29T09:04:33.155Z,14.30
2023-03-29T09:07:52.919Z,13.68
2023-03-29T09:11:02.142Z,13.33
2023-03-29T09:14:38.474Z,13.53
2023-03-29T09:17:52.814Z,13.00
2023-03-29T09:20:58.985Z,12.88
2023-03-29T09:24:25.256Z,12.23
2023-03-29T09:28:06.085Z,12.51
2023-03-29T09:31:36.382Z,13.55
2023-03-29T09:34:45.695Z,12.79
2023-03-29T09:37:55.309Z,12.65
2023-03-29T09:41:10.996Z,13.14
2023-03-29T09:44:29.832Z,14.01
2023-03-29T09:48:00.346Z,13.24
2023-03-29T09:51:08.928Z,13.67
2023-03-29T09:54:14.113Z,12.66
2023-03-29T09:57:35.435Z,12.30
2023-03-29T10:00:40.717Z,11.86
2023-03-29T10:03:53.282Z,12.23
2023-03-29T10:07:00.058Z,11.83
2023-03-29T10:10:02.758Z,12.14
2023-03-29T10:13:16.689Z,12.03
2023-03-29T10:16:25.832Z,12.24
2023-03-29T10:19:37.012Z,12.66
2023-03-29T10:22:41.153Z,12.65
2023-03-29T10:25:44.534Z,12.03
2023-03-29T10:28:46.867Z,13.64
2023-03-29T10:31:50.269Z,14.14
2023-03-29T10:34:53.797Z,14.59
2023-03-29T10:38:00.589Z,13.84
2023-03-29T10:41:10.355Z,12.23
2023-03-29T10:44:36.986Z,11.84
2023-03-29T10:47:44.860Z,11.36
2023-03-29T10:50:53.290Z,11.44
2023-03-29T10:53:58.214Z,11.49
2023-03-29T10:57:05.503Z,11.73
2023-03-29T11:00:21.178Z,12.03
2023-03-29T11:03:40.335Z,11.59
2023-03-29T11:07:14.757Z,11.67
2023-03-29T11:10:26.291Z,11.87
2023-03-29T11:14:00.125Z,12.07
2023-03-29T11:17:12.347Z,11.89
2023-03-29T11:20:39.394Z,12.10
2023-03-29T11:24:00.100Z,11.74
2023-03-29T11:27:23.206Z,12.40
2023-03-29T11:30:39.079Z,12.92
2023-03-29T11:33:54.083Z,13.34
2023-03-29T11:37:01.168Z,14.02
2023-03-29T11:40:11.335Z,14.14
2023-03-29T11:43:33.362Z,14.79
2023-03-29T11:47:00.521Z,15.06
2023-03-29T11:50:24.705Z,14.59
2023-03-29T11:53:36.381Z,15.08
2023-03-29T11:56:47.140Z,16.20
2023-03-29T12:00:02.794Z,17.86
2023-03-29T12:03:28.581Z,18.01
2023-03-29T12:06:42.040Z,18.00
2023-03-29T12:09:58.931Z,18.12
2023-03-29T12:13:05.924Z,17.94
2023-03-29T12:16:23.285Z,17.40
2023-03-29T12:19:33.678Z,15.75
2023-03-29T12:22:37.491Z,15.37
2023-03-29T12:26:08.550Z,14.86
2023-03-29T12:29:22.695Z,14.46
2023-03-29T12:32:52.693Z,14.01
2023-03-29T12:36:55.782Z,13.33
2023-03-29T12:40:19.200Z,12.58
2023-03-29T12:43:43.518Z,12.48
2023-03-29T12:47:18.881Z,12.00
2023-03-29T12:50:28.657Z,12.17
2023-03-29T12:53:38.819Z,12.31
2023-03-29T12:57:02.991Z,12.31
2023-03-29T13:00:43.904Z,12.46
2023-03-29T13:03:46.640Z,12.59
2023-03-29T13:06:49.465Z,12.61
2023-03-29T13:09:55.142Z,13.34
2023-03-29T13:12:58.082Z,12.91
2023-03-29T13:16:21.799Z,12.85
2023-03-29T13:19:29.768Z,12.30
2023-03-29T13:23:03.464Z,12.85
2023-03-29T13:26:21.517Z,13.68
2023-03-29T13:29:37.677Z,14.18
2023-03-29T13:32:44.082Z,14.05
2023-03-29T13:35:49.182Z,14.09
2023-03-29T13:38:54.293Z,14.25
2023-03-29T13:42:39.076Z,14.84
2023-03-29T13:45:41.250Z,14.57
2023-03-29T13:48:43.477Z,14.96
2023-03-29T13:52:27.158Z,14.14
2023-03-29T13:55:38.438Z,13.71
2023-03-29T13:58:49.093Z,14.01
2023-03-29T14:02:00.492Z,13.73
2023-03-29T14:05:05.762Z,13.03
2023-03-29T14:08:27.859Z,13.06
2023-03-29T14:11:31.206Z,12.61
2023-03-29T14:14:33.600Z,12.46
2023-03-29T14:17:36.993Z,12.32
2023-03-29T14:20:44.125Z,12.16
2023-03-29T14:23:53.611Z,11.98
2023-03-29T14:26:56.013Z,11.89
2023-03-29T14:29:58.243Z,11.86
2023-03-29T14:33:05.102Z,11.69
2023-03-29T14:36:16.032Z,11.72
2023-03-29T14:39:21.576Z,11.82
2023-03-29T14:42:28.418Z,11.80
2023-03-29T14:45:30.778Z,12.01
2023-03-29T14:48:33.385Z,12.28
2023-03-29T14:51:36.177Z,12.45
2023-03-29T14:54:41.724Z,12.28
2023-03-29T14:57:44.131Z,12.31
2023-03-29T15:00:49.240Z,12.32
2023-03-29T15:04:04.816Z,12.27
2023-03-29T15:07:08.401Z,12.20
2023-03-29T15:10:25.122Z,12.03
2023-03-29T15:13:28.425Z,12.01
2023-03-29T15:16:31.602Z,11.62
2023-03-29T15:19:34.385Z,11.53
2023-03-29T15:22:37.510Z,11.42
2023-03-29T15:25:50.838Z,11.25
2023-03-29T15:29:03.074Z,11.15
2023-03-29T15:32:05.555Z,11.25
2023-03-29T15:35:22.432Z,11.23
2023-03-29T15:38:30.322Z,10.95
2023-03-29T15:41:43.922Z,10.87
2023-03-29T15:44:46.128Z,10.91
2023-03-29T15:47:48.846Z,11.07
2023-03-29T15:50:51.464Z,10.75
2023-03-29T15:53:53.822Z,10.68
2023-03-29T15:57:01.786Z,10.75
2023-03-29T16:00:08.028Z,10.81
2023-03-29T16:03:16.121Z,10.97
2023-03-29T16:06:18.510Z,10.80
2023-03-29T16:09:22.385Z,10.64
2023-03-29T16:12:25.276Z,10.59
2023-03-29T16:15:28.504Z,10.59
2023-03-29T16:18:30.893Z,10.39
2023-03-29T16:21:33.441Z,10.41
2023-03-29T16:24:36.696Z,10.41
2023-03-29T16:27:38.982Z,10.56
2023-03-29T16:30:41.492Z,10.41
2023-03-29T16:33:43.763Z,10.59
2023-03-29T16:36:49.717Z,10.60
2023-03-29T16:39:51.903Z,10.51
2023-03-29T16:42:54.171Z,10.46
2023-03-29T16:45:57.093Z,10.30
2023-03-29T16:48:59.549Z,10.32
2023-03-29T16:52:01.979Z,10.16
2023-03-29T16:55:05.936Z,9.98
2023-03-29T16:58:08.943Z,9.95
2023-03-29T17:01:16.913Z,9.89
2023-03-29T17:04:19.260Z,9.93
2023-03-29T17:07:21.691Z,9.88
2023-03-29T17:10:24.040Z,9.95
2023-03-29T17:13:26.692Z,9.86
2023-03-29T17:16:29.308Z,9.78
2023-03-29T17:19:31.764Z,9.72
2023-03-29T17:22:34.730Z,9.69
2023-03-29T17:25:37.169Z,9.67
2023-03-29T17:28:39.405Z,9.65
2023-03-29T17:31:49.361Z,9.62
2023-03-29T17:34:53.127Z,9.59
2023-03-29T17:37:55.979Z,9.55
2023-03-29T17:40:58.183Z,9.58
2023-03-29T17:44:01.244Z,9.54
2023-03-29T17:47:04.007Z,9.49
2023-03-29T17:50:07.667Z,9.49
2023-03-29T17:53:10.290Z,9.39
2023-03-29T17:56:13.350Z,9.39
2023-03-29T17:59:15.629Z,9.41
2023-03-29T18:02:22.942Z,9.38
2023-03-29T18:05:25.959Z,9.41
2023-03-29T18:08:28.256Z,9.34
2023-03-29T18:11:30.841Z,9.38
2023-03-29T18:14:33.365Z,9.42
2023-03-29T18:17:35.881Z,9.47
2023-03-29T18:20:38.233Z,9.44
2023-03-29T18:23:42.225Z,9.34
2023-03-29T18:26:50.963Z,9.28
2023-03-29T18:30:00.051Z,9.26
2023-03-29T18:33:02.517Z,9.23
2023-03-29T18:36:10.841Z,9.20
2023-03-29T18:39:15.098Z,9.08
2023-03-29T18:42:17.423Z,9.13
2023-03-29T18:45:20.037Z,9.24
2023-03-29T18:48:22.239Z,9.13
2023-03-29T18:51:25.955Z,9.11
2023-03-29T18:54:28.281Z,9.13
2023-03-29T18:57:30.944Z,9.06
2023-03-29T19:00:33.166Z,8.99
2023-03-29T19:03:35.835Z,8.93
2023-03-29T19:06:38.276Z,8.91
2023-03-29T19:09:47.581Z,8.90
2023-03-29T19:12:49.780Z,8.87
2023-03-29T19:15:52.180Z,8.81
2023-03-29T19:18:54.518Z,8.79
2023-03-29T19:21:59.812Z,8.79
2023-03-29T19:25:04.610Z,8.79
2023-03-29T19:28:07.021Z,8.76
2023-03-29T19:31:10.192Z,8.79
2023-03-29T19:34:12.552Z,8.67
2023-03-29T19:37:15.635Z,8.65
2023-03-29T19:40:20.168Z,8.52
2023-03-29T19:43:25.156Z,8.49
2023-03-29T19:46:29.046Z,8.53
2023-03-29T19:49:32.452Z,8.50
2023-03-29T19:52:35.310Z,8.49
2023-03-29T19:55:39.562Z,8.45
2023-03-29T19:58:42.269Z,8.38
2023-03-29T20:01:50.992Z,8.38
2023-03-29T20:04:53.698Z,8.38
2023-03-29T20:07:56.225Z,8.41
2023-03-29T20:11:10.310Z,8.35
2023-03-29T20:14:13.384Z,8.38
2023-03-29T20:17:15.677Z,8.35
2023-03-29T20:20:18.722Z,8.41
2023-03-29T20:23:21.009Z,8.38
2023-03-29T20:26:24.320Z,8.36
2023-03-29T20:29:27.408Z,8.22
2023-03-29T20:32:30.100Z,8.20
2023-03-29T20:35:32.420Z,8.20
2023-03-29T20:38:35.466Z,8.22
2023-03-29T20:41:38.429Z,8.46
2023-03-29T20:44:40.810Z,8.41
2023-03-29T20:47:50.297Z,8.44
2023-03-29T20:50:52.637Z,8.45
2023-03-29T20:54:02.341Z,8.52
2023-03-29T20:57:06.814Z,8.56
2023-03-29T21:00:13.279Z,8.53
2023-03-29T21:03:15.702Z,8.50
2023-03-29T21:06:19.351Z,8.41
2023-03-29T21:09:23.676Z,8.29
2023-03-29T21:12:26.017Z,8.12
2023-03-29T21:15:30.670Z,8.21
2023-03-29T21:18:35.028Z,8.22
2023-03-29T21:21:37.301Z,8.20
2023-03-29T21:24:40.197Z,8.15
2023-03-29T21:27:43.164Z,8.08
2023-03-29T21:30:45.444Z,8.09
2023-03-29T21:33:47.640Z,8.05
2023-03-29T21:36:50.659Z,7.97
2023-03-29T21:39:52.847Z,7.99
2023-03-29T21:42:55.144Z,8.01
2023-03-29T21:45:57.739Z,7.88
2023-03-29T21:49:00.268Z,7.77
2023-03-29T21:52:02.478Z,7.78
2023-03-29T21:55:08.226Z,7.93
2023-03-29T21:58:10.664Z,7.94
2023-03-29T22:01:13.045Z,7.91
2023-03-29T22:04:25.494Z,7.85
2023-03-29T22:07:45.690Z,7.87
2023-03-29T22:10:55.361Z,7.81
2023-03-29T22:13:57.783Z,7.97
2023-03-29T22:17:00.069Z,7.78
2023-03-29T22:20:04.565Z,7.66
2023-03-29T22:23:06.746Z,7.67
2023-03-29T22:26:11.347Z,7.84
2023-03-29T22:29:13.790Z,7.93
2023-03-29T22:32:16.234Z,7.97
2023-03-29T22:35:19.553Z,8.05
2023-03-29T22:38:21.946Z,8.05
2023-03-29T22:41:26.194Z,8.02
2023-03-29T22:44:28.730Z,7.97
2023-03-29T22:47:31.113Z,7.83
2023-03-29T22:50:33.455Z,7.64
2023-03-29T22:53:35.868Z,7.54
2023-03-29T22:56:38.135Z,7.56
2023-03-29T22:59:40.614Z,7.57
2023-03-29T23:02:43.342Z,7.59
2023-03-29T23:05:56.964Z,7.53
2023-03-29T23:08:59.215Z,7.49
2023-03-29T23:12:01.491Z,7.52
2023-03-29T23:15:06.401Z,7.44
2023-03-29T23:18:13.099Z,7.40
2023-03-29T23:21:15.425Z,7.42
2023-03-29T23:24:19.141Z,7.37
2023-03-29T23:27:21.659Z,7.33
2023-03-29T23:30:23.960Z,7.33
2023-03-29T23:33:27.107Z,7.35
2023-03-29T23:36:31.517Z,7.40
2023-03-29T23:39:35.001Z,7.39
2023-03-29T23:42:39.299Z,7.36
2023-03-29T23:45:41.556Z,7.23
2023-03-29T23:48:50.120Z,7.33
2023-03-29T23:51:52.448Z,7.25
2023-03-29T23:54:54.617Z,7.22
2023-03-29T23:57:56.946Z,7.15
